Sea Cloud — 9HOM2 — position and weather

sailwx.info

Track history (hours):
 
Tides and Currents Weather Stations Pressure Air Temp Water Temp Dewpoint Dewpoint Depression Visibility Wind Speed Wind Dir Waves Ship Positions

Sea Cloud

Ship's website: http://www.seacloud.com/en/the-ships/sea-cloud.html

Last reported at 2017-Apr-26 11:07 UTC. Time now 2017-Apr-26 11:48 UTC.
Position N 38°54' E 001°27'.

Length 110 m; draft 5.3 m.

Type: Ship. MMSI: 256084000.

Date/timePositionNaut miles runAvg speedWind from/ knotsBaromVisibWave heightAir tempDewpointWater temp
2017-Apr-26 11:07N 38°54' E 001°27'1 6.5
2017-Apr-26 11:00N 38°54' E 001°27'4 7.0
2017-Apr-26 10:28N 38°51' E 001°31'3 7.2
2017-Apr-26 10:00N 38°48' E 001°34'4 6.9
2017-Apr-26 09:29N 38°45' E 001°36'3 6.8
2017-Apr-26 09:00N 38°43' E 001°38'4 7.5
2017-Apr-26 08:30N 38°39' E 001°38'4 7.6
2017-Apr-26 07:59N 38°36' E 001°35'5 8.4
2017-Apr-26 07:24N 38°33' E 001°31'4 8.4
2017-Apr-26 06:59N 38°30' E 001°27'4 8.4
2017-Apr-26 06:30N 38°28' E 001°23'4 8.5
2017-Apr-26 05:59N 38°25' E 001°18'81 9.0
2017-Apr-25 20:58N 37°37' W 000°04'510.1
2017-Apr-25 20:30N 37°34' W 000°09'510.2
2017-Apr-25 20:00N 37°31' W 000°14'710.3
2017-Apr-25 19:21N 37°27' W 000°20'410.3
2017-Apr-25 19:00N 37°24' W 000°24'910.3
2017-Apr-25 18:06N 37°19' W 000°33'210.2
2017-Apr-25 17:56N 37°18' W 000°35'6 9.9
2017-Apr-25 17:22N 37°14' W 000°40'4 9.7
2017-Apr-25 17:00N 37°12' W 000°44'220 6.0
2017-Apr-24 03:58N 36°16' W 005°10'4 9.8
2017-Apr-24 03:30N 36°12' W 005°12'5 9.9
2017-Apr-24 03:01N 36°07' W 005°15'5 9.9
2017-Apr-24 02:31N 36°03' W 005°18'510.2
2017-Apr-24 02:01N 35°59' W 005°22'510.5
2017-Apr-24 01:30N 35°57' W 005°28'6 9.8
2017-Apr-24 00:56N 35°56' W 005°35'5 9.3
2017-Apr-24 00:24N 35°55' W 005°41'226 5.1
2017-Apr-22 04:03N 37°55' W 009°40'1 9.6
2017-Apr-22 03:54N 37°57' W 009°40'4 9.6
2017-Apr-22 03:30N 38°00' W 009°38'5 9.5
2017-Apr-22 03:00N 38°05' W 009°36'11 9.7
2017-Apr-22 01:50N 38°15' W 009°31'3 9.9
2017-Apr-22 01:30N 38°19' W 009°30'510.2
2017-Apr-22 01:00N 38°23' W 009°28'510.5
2017-Apr-22 00:30N 38°28' W 009°26'510.4
2017-Apr-22 00:01N 38°33' W 009°24'510.1
2017-Apr-21 23:31N 38°38' W 009°21'5 9.2
2017-Apr-21 22:57N 38°41' W 009°16'4 8.5
2017-Apr-21 22:30N 38°41' W 009°11'3 7.0
2017-Apr-21 22:00N 38°42' W 009°07'0 0.1
2017-Apr-21 21:30N 38°42' W 009°07'0 0.0
2017-Apr-21 21:00N 38°42' W 009°07'0 0.0
2017-Apr-21 19:54N 38°42' W 009°07'0 0.0
2017-Apr-21 19:22N 38°42' W 009°07'0 0.0
2017-Apr-21 18:48N 38°42' W 009°07'0 0.0
2017-Apr-21 18:30N 38°42' W 009°07'0 0.1
2017-Apr-21 18:01N 38°42' W 009°07'0 0.1
2017-Apr-21 17:22N 38°42' W 009°07'0 0.1
2017-Apr-21 17:01N 38°42' W 009°07'2 4.5
2017-Apr-21 16:28N 38°41' W 009°10'4 7.3
2017-Apr-21 15:56N 38°41' W 009°15'2 4.0
2017-Apr-21 15:30N 38°41' W 009°17'2 4.6
2017-Apr-21 15:00N 38°39' W 009°19'0 0.8
2017-Apr-21 14:30N 38°40' W 009°19'1 1.4
2017-Apr-21 13:30N 38°38' W 009°20'2 3.3
2017-Apr-21 13:00N 38°37' W 009°22'2 3.3
2017-Apr-21 12:31N 38°36' W 009°23'1 1.3
2017-Apr-21 12:00N 38°35' W 009°23'1 1.6
2017-Apr-21 11:31N 38°36' W 009°22'2 3.0
2017-Apr-21 11:01N 38°37' W 009°21'2 3.4
2017-Apr-21 10:31N 38°39' W 009°20'2 4.1
2017-Apr-21 10:00N 38°40' W 009°18'2 3.8
2017-Apr-21 09:30N 38°41' W 009°16'2 3.7
2017-Apr-21 08:59N 38°41' W 009°14'3 5.0
2017-Apr-21 08:28N 38°41' W 009°11'3 1.1
2017-Apr-21 05:53N 38°43' W 009°07'0 0.0
2017-Apr-21 04:11N 38°43' W 009°07'0 0.0
2017-Apr-21 03:35N 38°43' W 009°07'0 0.0
2017-Apr-21 03:23N 38°43' W 009°07'0 0.0
2017-Apr-21 01:17N 38°43' W 009°07'0 0.0
2017-Apr-21 00:59N 38°43' W 009°07'0 0.0
2017-Apr-20 23:29N 38°43' W 009°07'0 0.0
2017-Apr-20 22:53N 38°43' W 009°07'0 0.0
2017-Apr-20 22:29N 38°43' W 009°07'0 0.0
2017-Apr-20 21:59N 38°43' W 009°07'0 0.0
2017-Apr-20 21:29N 38°43' W 009°07'0 0.0
2017-Apr-20 20:59N 38°43' W 009°07'0 0.0
2017-Apr-20 20:05N 38°43' W 009°07'0 0.0
2017-Apr-20 19:59N 38°43' W 009°07'0 0.0
2017-Apr-20 19:11N 38°43' W 009°07'0 0.0
2017-Apr-20 18:53N 38°43' W 009°07'0 0.0
2017-Apr-20 18:29N 38°43' W 009°07'0 0.0
2017-Apr-20 17:59N 38°43' W 009°07'0 0.0
2017-Apr-20 17:17N 38°43' W 009°07'0 0.0
2017-Apr-20 16:59N 38°43' W 009°07'0 0.0
2017-Apr-20 16:29N 38°43' W 009°07'0 0.0
2017-Apr-20 15:59N 38°43' W 009°07'0 0.0
2017-Apr-20 15:29N 38°43' W 009°07'0 0.0
2017-Apr-20 12:59N 38°43' W 009°07'0 0.0
2017-Apr-20 12:23N 38°43' W 009°07'0 0.0
2017-Apr-20 11:59N 38°43' W 009°07'0 0.0
2017-Apr-20 11:23N 38°43' W 009°07'0 0.0
2017-Apr-20 10:59N 38°43' W 009°07'0 0.0
2017-Apr-20 10:29N 38°43' W 009°07'0 0.0
2017-Apr-20 09:59N 38°43' W 009°07'0 0.0
2017-Apr-20 09:29N 38°43' W 009°07'0 0.0
2017-Apr-20 08:59N 38°43' W 009°07'0 0.0
2017-Apr-20 08:23N 38°43' W 009°07'0 0.0
2017-Apr-20 07:59N 38°43' W 009°07'0 0.0
2017-Apr-20 07:29N 38°43' W 009°07'0 0.0
2017-Apr-20 06:59N 38°43' W 009°07'0 0.0
2017-Apr-20 06:29N 38°43' W 009°07'0 0.0
2017-Apr-20 05:53N 38°43' W 009°07'0 0.0
2017-Apr-20 05:23N 38°43' W 009°07'0 0.0
2017-Apr-20 04:59N 38°43' W 009°07'0 0.0
2017-Apr-20 04:29N 38°43' W 009°07'0 0.0
2017-Apr-20 03:59N 38°43' W 009°07'0 0.0
2017-Apr-20 03:11N 38°43' W 009°07'0 0.0
2017-Apr-20 02:59N 38°43' W 009°07'0 0.0
2017-Apr-20 01:47N 38°43' W 009°07'0 0.0
2017-Apr-20 01:29N 38°43' W 009°07'0 0.0
2017-Apr-20 00:53N 38°43' W 009°07'0 0.0
2017-Apr-20 00:29N 38°43' W 009°07'0 0.0
2017-Apr-19 23:53N 38°43' W 009°07'0 0.0
2017-Apr-19 23:29N 38°43' W 009°07'0 0.0
2017-Apr-19 22:53N 38°43' W 009°07'0 0.0
2017-Apr-19 22:29N 38°43' W 009°07'0 0.0
2017-Apr-19 21:59N 38°43' W 009°07'0 0.0
2017-Apr-19 21:29N 38°43' W 009°07'0 0.0
2017-Apr-19 20:53N 38°43' W 009°07'0 0.0
2017-Apr-19 20:29N 38°43' W 009°07'0 0.0
2017-Apr-19 19:59N 38°43' W 009°07'0 0.0
2017-Apr-19 19:29N 38°43' W 009°07'0 0.0
2017-Apr-19 17:11N 38°43' W 009°07'0 0.0
2017-Apr-19 16:56N 38°43' W 009°07'0 0.6
2017-Apr-19 16:30N 38°43' W 009°07'5 9.2
2017-Apr-19 15:59N 38°41' W 009°13'5 8.7
2017-Apr-19 15:28N 38°40' W 009°18'510.4
2017-Apr-19 15:01N 38°37' W 009°23'510.6
2017-Apr-19 14:30N 38°35' W 009°29'1110.6
2017-Apr-19 13:31N 38°33' W 009°42'510.8
2017-Apr-19 13:00N 38°31' W 009°49'510.4
2017-Apr-19 12:30N 38°30' W 009°55'510.3
2017-Apr-19 11:59N 38°28' W 010°02'  
Track history (hours):
 
Tides and Currents Weather Stations Pressure Air Temp Water Temp Dewpoint Dewpoint Depression Visibility Wind Speed Wind Dir Waves Ship Positions

Sea Cloud

Ship's website: http://www.seacloud.com/en/the-ships/sea-cloud.html

Last reported at 2017-Apr-26 11:07 UTC. Time now 2017-Apr-26 11:48 UTC.
Position N 38°54' E 001°27'.

Length 110 m; draft 5.3 m.

Type: Ship. MMSI: 256084000.

Date/timePositionNaut miles runAvg speedWind from/ knotsBaromVisibWave heightAir tempDewpointWater temp
2017-Apr-26 11:07N 38°54' E 001°27'1 6.5
2017-Apr-26 11:00N 38°54' E 001°27'4 7.0
2017-Apr-26 10:28N 38°51' E 001°31'3 7.2
2017-Apr-26 10:00N 38°48' E 001°34'4 6.9
2017-Apr-26 09:29N 38°45' E 001°36'3 6.8
2017-Apr-26 09:00N 38°43' E 001°38'4 7.5
2017-Apr-26 08:30N 38°39' E 001°38'4 7.6
2017-Apr-26 07:59N 38°36' E 001°35'5 8.4
2017-Apr-26 07:24N 38°33' E 001°31'4 8.4
2017-Apr-26 06:59N 38°30' E 001°27'4 8.4
2017-Apr-26 06:30N 38°28' E 001°23'4 8.5
2017-Apr-26 05:59N 38°25' E 001°18'81 9.0
2017-Apr-25 20:58N 37°37' W 000°04'510.1
2017-Apr-25 20:30N 37°34' W 000°09'510.2
2017-Apr-25 20:00N 37°31' W 000°14'710.3
2017-Apr-25 19:21N 37°27' W 000°20'410.3
2017-Apr-25 19:00N 37°24' W 000°24'910.3
2017-Apr-25 18:06N 37°19' W 000°33'210.2
2017-Apr-25 17:56N 37°18' W 000°35'6 9.9
2017-Apr-25 17:22N 37°14' W 000°40'4 9.7
2017-Apr-25 17:00N 37°12' W 000°44'220 6.0
2017-Apr-24 03:58N 36°16' W 005°10'4 9.8
2017-Apr-24 03:30N 36°12' W 005°12'5 9.9
2017-Apr-24 03:01N 36°07' W 005°15'5 9.9
2017-Apr-24 02:31N 36°03' W 005°18'510.2
2017-Apr-24 02:01N 35°59' W 005°22'510.5
2017-Apr-24 01:30N 35°57' W 005°28'6 9.8
2017-Apr-24 00:56N 35°56' W 005°35'5 9.3
2017-Apr-24 00:24N 35°55' W 005°41'226 5.1
2017-Apr-22 04:03N 37°55' W 009°40'1 9.6
2017-Apr-22 03:54N 37°57' W 009°40'4 9.6
2017-Apr-22 03:30N 38°00' W 009°38'5 9.5
2017-Apr-22 03:00N 38°05' W 009°36'11 9.7
2017-Apr-22 01:50N 38°15' W 009°31'3 9.9
2017-Apr-22 01:30N 38°19' W 009°30'510.2
2017-Apr-22 01:00N 38°23' W 009°28'510.5
2017-Apr-22 00:30N 38°28' W 009°26'510.4
2017-Apr-22 00:01N 38°33' W 009°24'510.1
2017-Apr-21 23:31N 38°38' W 009°21'5 9.2
2017-Apr-21 22:57N 38°41' W 009°16'4 8.5
2017-Apr-21 22:30N 38°41' W 009°11'3 7.0
2017-Apr-21 22:00N 38°42' W 009°07'0 0.1
2017-Apr-21 21:30N 38°42' W 009°07'0 0.0
2017-Apr-21 21:00N 38°42' W 009°07'0 0.0
2017-Apr-21 19:54N 38°42' W 009°07'0 0.0
2017-Apr-21 19:22N 38°42' W 009°07'0 0.0
2017-Apr-21 18:48N 38°42' W 009°07'0 0.0
2017-Apr-21 18:30N 38°42' W 009°07'0 0.1
2017-Apr-21 18:01N 38°42' W 009°07'0 0.1
2017-Apr-21 17:22N 38°42' W 009°07'0 0.1
2017-Apr-21 17:01N 38°42' W 009°07'2 4.5
2017-Apr-21 16:28N 38°41' W 009°10'4 7.3
2017-Apr-21 15:56N 38°41' W 009°15'2 4.0
2017-Apr-21 15:30N 38°41' W 009°17'2 4.6
2017-Apr-21 15:00N 38°39' W 009°19'0 0.8
2017-Apr-21 14:30N 38°40' W 009°19'1 1.4
2017-Apr-21 13:30N 38°38' W 009°20'2 3.3
2017-Apr-21 13:00N 38°37' W 009°22'2 3.3
2017-Apr-21 12:31N 38°36' W 009°23'1 1.3
2017-Apr-21 12:00N 38°35' W 009°23'1 1.6
2017-Apr-21 11:31N 38°36' W 009°22'2 3.0
2017-Apr-21 11:01N 38°37' W 009°21'2 3.4
2017-Apr-21 10:31N 38°39' W 009°20'2 4.1
2017-Apr-21 10:00N 38°40' W 009°18'2 3.8
2017-Apr-21 09:30N 38°41' W 009°16'2 3.7
2017-Apr-21 08:59N 38°41' W 009°14'3 5.0
2017-Apr-21 08:28N 38°41' W 009°11'3 1.1
2017-Apr-21 05:53N 38°43' W 009°07'0 0.0
2017-Apr-21 04:11N 38°43' W 009°07'0 0.0
2017-Apr-21 03:35N 38°43' W 009°07'0 0.0
2017-Apr-21 03:23N 38°43' W 009°07'0 0.0
2017-Apr-21 01:17N 38°43' W 009°07'0 0.0
2017-Apr-21 00:59N 38°43' W 009°07'0 0.0
2017-Apr-20 23:29N 38°43' W 009°07'0 0.0
2017-Apr-20 22:53N 38°43' W 009°07'0 0.0
2017-Apr-20 22:29N 38°43' W 009°07'0 0.0
2017-Apr-20 21:59N 38°43' W 009°07'0 0.0
2017-Apr-20 21:29N 38°43' W 009°07'0 0.0
2017-Apr-20 20:59N 38°43' W 009°07'0 0.0
2017-Apr-20 20:05N 38°43' W 009°07'0 0.0
2017-Apr-20 19:59N 38°43' W 009°07'0 0.0
2017-Apr-20 19:11N 38°43' W 009°07'0 0.0
2017-Apr-20 18:53N 38°43' W 009°07'0 0.0
2017-Apr-20 18:29N 38°43' W 009°07'0 0.0
2017-Apr-20 17:59N 38°43' W 009°07'0 0.0
2017-Apr-20 17:17N 38°43' W 009°07'0 0.0
2017-Apr-20 16:59N 38°43' W 009°07'0 0.0
2017-Apr-20 16:29N 38°43' W 009°07'0 0.0
2017-Apr-20 15:59N 38°43' W 009°07'0 0.0
2017-Apr-20 15:29N 38°43' W 009°07'0 0.0
2017-Apr-20 12:59N 38°43' W 009°07'0 0.0
2017-Apr-20 12:23N 38°43' W 009°07'0 0.0
2017-Apr-20 11:59N 38°43' W 009°07'0 0.0
2017-Apr-20 11:23N 38°43' W 009°07'0 0.0
2017-Apr-20 10:59N 38°43' W 009°07'0 0.0
2017-Apr-20 10:29N 38°43' W 009°07'0 0.0
2017-Apr-20 09:59N 38°43' W 009°07'0 0.0
2017-Apr-20 09:29N 38°43' W 009°07'0 0.0
2017-Apr-20 08:59N 38°43' W 009°07'0 0.0
2017-Apr-20 08:23N 38°43' W 009°07'0 0.0
2017-Apr-20 07:59N 38°43' W 009°07'0 0.0
2017-Apr-20 07:29N 38°43' W 009°07'0 0.0
2017-Apr-20 06:59N 38°43' W 009°07'0 0.0
2017-Apr-20 06:29N 38°43' W 009°07'0 0.0
2017-Apr-20 05:53N 38°43' W 009°07'0 0.0
2017-Apr-20 05:23N 38°43' W 009°07'0 0.0
2017-Apr-20 04:59N 38°43' W 009°07'0 0.0
2017-Apr-20 04:29N 38°43' W 009°07'0 0.0
2017-Apr-20 03:59N 38°43' W 009°07'0 0.0
2017-Apr-20 03:11N 38°43' W 009°07'0 0.0
2017-Apr-20 02:59N 38°43' W 009°07'0 0.0
2017-Apr-20 01:47N 38°43' W 009°07'0 0.0
2017-Apr-20 01:29N 38°43' W 009°07'0 0.0
2017-Apr-20 00:53N 38°43' W 009°07'0 0.0
2017-Apr-20 00:29N 38°43' W 009°07'0 0.0
2017-Apr-19 23:53N 38°43' W 009°07'0 0.0
2017-Apr-19 23:29N 38°43' W 009°07'0 0.0
2017-Apr-19 22:53N 38°43' W 009°07'0 0.0
2017-Apr-19 22:29N 38°43' W 009°07'0 0.0
2017-Apr-19 21:59N 38°43' W 009°07'0 0.0
2017-Apr-19 21:29N 38°43' W 009°07'0 0.0
2017-Apr-19 20:53N 38°43' W 009°07'0 0.0
2017-Apr-19 20:29N 38°43' W 009°07'0 0.0
2017-Apr-19 19:59N 38°43' W 009°07'0 0.0
2017-Apr-19 19:29N 38°43' W 009°07'0 0.0
2017-Apr-19 17:11N 38°43' W 009°07'0 0.0
2017-Apr-19 16:56N 38°43' W 009°07'0 0.6
2017-Apr-19 16:30N 38°43' W 009°07'5 9.2
2017-Apr-19 15:59N 38°41' W 009°13'5 8.7
2017-Apr-19 15:28N 38°40' W 009°18'510.4
2017-Apr-19 15:01N 38°37' W 009°23'510.6
2017-Apr-19 14:30N 38°35' W 009°29'1110.6
2017-Apr-19 13:31N 38°33' W 009°42'510.8
2017-Apr-19 13:00N 38°31' W 009°49'510.4
2017-Apr-19 12:30N 38°30' W 009°55'510.3
2017-Apr-19 11:59N 38°28' W 010°02'  

Dump ship's entire track history